sensor_id;sensor_type;location;lat;lon;timestamp;P1;durP1;ratioP1;P2;durP2;ratioP2
24857;SDS011;12935;50.782;6.074;2022-10-01T00:01:52;134.43;;;98.80;;
24857;SDS011;12935;50.782;6.074;2022-10-01T00:04:17;103.27;;;90.67;;
24857;SDS011;12935;50.782;6.074;2022-10-01T00:06:43;106.73;;;91.37;;
24857;SDS011;12935;50.782;6.074;2022-10-01T00:09:08;106.17;;;91.57;;
24857;SDS011;12935;50.782;6.074;2022-10-01T00:11:34;101.10;;;90.03;;
24857;SDS011;12935;50.782;6.074;2022-10-01T00:13:59;110.17;;;94.90;;
24857;SDS011;12935;50.782;6.074;2022-10-01T00:16:26;111.47;;;91.93;;
24857;SDS011;12935;50.782;6.074;2022-10-01T00:18:53;116.68;;;94.50;;
24857;SDS011;12935;50.782;6.074;2022-10-01T00:21:20;103.07;;;90.60;;
24857;SDS011;12935;50.782;6.074;2022-10-01T00:23:47;104.47;;;91.57;;
24857;SDS011;12935;50.782;6.074;2022-10-01T00:26:19;111.53;;;93.07;;
24857;SDS011;12935;50.782;6.074;2022-10-01T00:28:49;106.68;;;90.43;;
24857;SDS011;12935;50.782;6.074;2022-10-01T00:31:18;101.13;;;90.03;;
24857;SDS011;12935;50.782;6.074;2022-10-01T00:33:44;109.10;;;91.17;;
24857;SDS011;12935;50.782;6.074;2022-10-01T00:36:10;148.90;;;123.37;;
24857;SDS011;12935;50.782;6.074;2022-10-01T00:38:36;99.43;;;89.33;;
24857;SDS011;12935;50.782;6.074;2022-10-01T00:41:02;105.65;;;90.55;;
24857;SDS011;12935;50.782;6.074;2022-10-01T00:43:31;100.10;;;89.18;;
24857;SDS011;12935;50.782;6.074;2022-10-01T00:46:00;99.07;;;88.97;;
24857;SDS011;12935;50.782;6.074;2022-10-01T00:48:31;107.95;;;92.70;;
24857;SDS011;12935;50.782;6.074;2022-10-01T00:51:04;99.37;;;88.97;;
24857;SDS011;12935;50.782;6.074;2022-10-01T00:53:30;110.25;;;94.30;;
24857;SDS011;12935;50.782;6.074;2022-10-01T00:55:56;105.77;;;91.13;;
24857;SDS011;12935;50.782;6.074;2022-10-01T00:58:23;100.18;;;89.25;;
24857;SDS011;12935;50.782;6.074;2022-10-01T01:00:50;105.97;;;90.53;;
24857;SDS011;12935;50.782;6.074;2022-10-01T01:03:18;110.45;;;91.30;;
24857;SDS011;12935;50.782;6.074;2022-10-01T01:05:43;92.77;;;82.50;;
24857;SDS011;12935;50.782;6.074;2022-10-01T01:08:11;100.57;;;83.85;;
24857;SDS011;12935;50.782;6.074;2022-10-01T01:18:31;110.25;;;91.93;;
24857;SDS011;12935;50.782;6.074;2022-10-01T01:29:26;105.68;;;92.22;;
24857;SDS011;12935;50.782;6.074;2022-10-01T01:31:59;118.38;;;94.80;;
24857;SDS011;12935;50.782;6.074;2022-10-01T01:34:31;111.22;;;93.65;;
24857;SDS011;12935;50.782;6.074;2022-10-01T01:37:00;104.88;;;91.47;;
24857;SDS011;12935;50.782;6.074;2022-10-01T01:39:30;99.63;;;88.72;;
24857;SDS011;12935;50.782;6.074;2022-10-01T01:41:59;100.30;;;89.53;;
24857;SDS011;12935;50.782;6.074;2022-10-01T01:44:32;116.72;;;94.40;;
24857;SDS011;12935;50.782;6.074;2022-10-01T01:47:02;101.32;;;88.85;;
24857;SDS011;12935;50.782;6.074;2022-10-01T01:49:31;101.72;;;89.05;;
24857;SDS011;12935;50.782;6.074;2022-10-01T01:52:07;103.30;;;90.35;;
24857;SDS011;12935;50.782;6.074;2022-10-01T01:54:37;107.10;;;90.03;;
24857;SDS011;12935;50.782;6.074;2022-10-01T01:57:04;102.75;;;90.35;;
24857;SDS011;12935;50.782;6.074;2022-10-01T01:59:31;108.20;;;91.57;;
24857;SDS011;12935;50.782;6.074;2022-10-01T02:01:58;115.38;;;94.82;;
24857;SDS011;12935;50.782;6.074;2022-10-01T02:04:33;101.93;;;90.43;;
24857;SDS011;12935;50.782;6.074;2022-10-01T02:10:00;100.82;;;89.93;;
24857;SDS011;12935;50.782;6.074;2022-10-01T02:15:45;105.95;;;90.90;;
24857;SDS011;12935;50.782;6.074;2022-10-01T02:18:11;101.13;;;89.63;;
24857;SDS011;12935;50.782;6.074;2022-10-01T02:20:47;100.13;;;89.07;;
24857;SDS011;12935;50.782;6.074;2022-10-01T02:23:19;99.57;;;88.15;;
24857;SDS011;12935;50.782;6.074;2022-10-01T02:25:50;96.82;;;86.68;;
24857;SDS011;12935;50.782;6.074;2022-10-01T02:28:22;105.38;;;89.03;;
24857;SDS011;12935;50.782;6.074;2022-10-01T02:30:51;100.45;;;89.40;;
24857;SDS011;12935;50.782;6.074;2022-10-01T02:33:23;104.63;;;90.30;;
24857;SDS011;12935;50.782;6.074;2022-10-01T02:35:51;100.82;;;89.07;;
24857;SDS011;12935;50.782;6.074;2022-10-01T02:38:19;98.80;;;87.97;;
24857;SDS011;12935;50.782;6.074;2022-10-01T02:40:47;112.28;;;92.32;;
24857;SDS011;12935;50.782;6.074;2022-10-01T02:43:19;96.75;;;86.93;;
24857;SDS011;12935;50.782;6.074;2022-10-01T02:45:53;98.80;;;87.65;;
24857;SDS011;12935;50.782;6.074;2022-10-01T02:48:24;94.95;;;84.65;;
24857;SDS011;12935;50.782;6.074;2022-10-01T02:50:57;101.28;;;86.20;;
24857;SDS011;12935;50.782;6.074;2022-10-01T02:53:31;96.65;;;86.00;;
24857;SDS011;12935;50.782;6.074;2022-10-01T02:56:08;104.28;;;86.55;;
24857;SDS011;12935;50.782;6.074;2022-10-01T02:58:35;115.57;;;92.15;;
24857;SDS011;12935;50.782;6.074;2022-10-01T03:01:01;111.60;;;93.30;;
24857;SDS011;12935;50.782;6.074;2022-10-01T03:03:26;102.03;;;90.07;;
24857;SDS011;12935;50.782;6.074;2022-10-01T03:05:51;98.83;;;88.30;;
24857;SDS011;12935;50.782;6.074;2022-10-01T03:08:17;105.37;;;90.33;;
24857;SDS011;12935;50.782;6.074;2022-10-01T03:10:43;97.80;;;87.53;;
24857;SDS011;12935;50.782;6.074;2022-10-01T03:13:09;96.77;;;86.50;;
24857;SDS011;12935;50.782;6.074;2022-10-01T03:15:34;99.77;;;87.07;;
24857;SDS011;12935;50.782;6.074;2022-10-01T03:17:59;94.57;;;81.60;;
24857;SDS011;12935;50.782;6.074;2022-10-01T03:20:24;102.90;;;83.97;;
24857;SDS011;12935;50.782;6.074;2022-10-01T03:22:50;96.47;;;84.10;;
24857;SDS011;12935;50.782;6.074;2022-10-01T03:25:16;108.20;;;84.50;;
24857;SDS011;12935;50.782;6.074;2022-10-01T03:27:41;103.60;;;89.03;;
24857;SDS011;12935;50.782;6.074;2022-10-01T03:30:07;101.20;;;86.00;;
24857;SDS011;12935;50.782;6.074;2022-10-01T03:32:34;95.30;;;84.88;;
24857;SDS011;12935;50.782;6.074;2022-10-01T03:34:59;102.60;;;85.90;;
24857;SDS011;12935;50.782;6.074;2022-10-01T03:37:25;101.10;;;83.17;;
24857;SDS011;12935;50.782;6.074;2022-10-01T03:39:50;97.63;;;84.00;;
24857;SDS011;12935;50.782;6.074;2022-10-01T03:42:16;97.67;;;85.10;;
24857;SDS011;12935;50.782;6.074;2022-10-01T03:44:41;126.07;;;92.57;;
24857;SDS011;12935;50.782;6.074;2022-10-01T03:47:07;96.88;;;86.43;;
24857;SDS011;12935;50.782;6.074;2022-10-01T03:49:33;107.85;;;91.10;;
24857;SDS011;12935;50.782;6.074;2022-10-01T03:51:59;104.33;;;86.47;;
24857;SDS011;12935;50.782;6.074;2022-10-01T03:54:25;96.47;;;85.20;;
24857;SDS011;12935;50.782;6.074;2022-10-01T03:56:50;90.43;;;80.77;;
24857;SDS011;12935;50.782;6.074;2022-10-01T03:59:16;96.40;;;86.20;;
24857;SDS011;12935;50.782;6.074;2022-10-01T04:01:41;105.13;;;85.47;;
24857;SDS011;12935;50.782;6.074;2022-10-01T04:04:07;104.27;;;87.60;;
24857;SDS011;12935;50.782;6.074;2022-10-01T04:06:32;96.13;;;83.37;;
24857;SDS011;12935;50.782;6.074;2022-10-01T04:08:57;96.73;;;78.40;;
24857;SDS011;12935;50.782;6.074;2022-10-01T04:11:23;88.10;;;76.80;;
24857;SDS011;12935;50.782;6.074;2022-10-01T04:13:48;84.07;;;74.73;;
24857;SDS011;12935;50.782;6.074;2022-10-01T04:16:14;88.93;;;79.40;;
24857;SDS011;12935;50.782;6.074;2022-10-01T04:18:40;104.10;;;85.77;;
24857;SDS011;12935;50.782;6.074;2022-10-01T04:21:05;95.10;;;81.30;;
24857;SDS011;12935;50.782;6.074;2022-10-01T04:23:31;82.67;;;73.83;;
24857;SDS011;12935;50.782;6.074;2022-10-01T04:25:57;89.70;;;77.97;;
24857;SDS011;12935;50.782;6.074;2022-10-01T04:28:24;89.57;;;76.35;;
24857;SDS011;12935;50.782;6.074;2022-10-01T04:30:49;82.13;;;73.53;;
24857;SDS011;12935;50.782;6.074;2022-10-01T04:33:34;88.13;;;73.95;;
24857;SDS011;12935;50.782;6.074;2022-10-01T04:36:00;101.37;;;80.40;;
24857;SDS011;12935;50.782;6.074;2022-10-01T04:38:25;85.07;;;73.90;;
24857;SDS011;12935;50.782;6.074;2022-10-01T04:40:51;73.70;;;66.27;;
24857;SDS011;12935;50.782;6.074;2022-10-01T04:43:16;68.97;;;62.23;;
24857;SDS011;12935;50.782;6.074;2022-10-01T04:45:41;70.07;;;63.30;;
24857;SDS011;12935;50.782;6.074;2022-10-01T04:48:06;73.80;;;65.80;;
24857;SDS011;12935;50.782;6.074;2022-10-01T04:50:32;101.47;;;85.33;;
24857;SDS011;12935;50.782;6.074;2022-10-01T04:52:57;128.27;;;88.57;;
24857;SDS011;12935;50.782;6.074;2022-10-01T04:55:23;98.10;;;87.10;;
24857;SDS011;12935;50.782;6.074;2022-10-01T04:57:48;97.20;;;86.67;;
24857;SDS011;12935;50.782;6.074;2022-10-01T05:00:15;101.53;;;87.30;;
24857;SDS011;12935;50.782;6.074;2022-10-01T05:02:46;99.18;;;84.97;;
24857;SDS011;12935;50.782;6.074;2022-10-01T05:05:13;102.68;;;88.82;;
24857;SDS011;12935;50.782;6.074;2022-10-01T05:07:39;100.20;;;85.93;;
24857;SDS011;12935;50.782;6.074;2022-10-01T05:10:05;116.77;;;91.70;;
24857;SDS011;12935;50.782;6.074;2022-10-01T05:12:32;100.90;;;82.68;;
24857;SDS011;12935;50.782;6.074;2022-10-01T05:14:57;95.47;;;83.90;;
24857;SDS011;12935;50.782;6.074;2022-10-01T05:17:22;95.83;;;83.07;;
24857;SDS011;12935;50.782;6.074;2022-10-01T05:19:48;95.77;;;82.03;;
24857;SDS011;12935;50.782;6.074;2022-10-01T05:22:14;98.85;;;81.85;;
24857;SDS011;12935;50.782;6.074;2022-10-01T05:24:40;96.60;;;83.95;;
24857;SDS011;12935;50.782;6.074;2022-10-01T05:27:07;104.75;;;85.88;;
24857;SDS011;12935;50.782;6.074;2022-10-01T05:29:37;117.77;;;88.77;;
24857;SDS011;12935;50.782;6.074;2022-10-01T05:32:06;91.88;;;81.70;;
24857;SDS011;12935;50.782;6.074;2022-10-01T05:34:36;95.75;;;82.43;;
24857;SDS011;12935;50.782;6.074;2022-10-01T05:37:02;85.33;;;76.60;;
24857;SDS011;12935;50.782;6.074;2022-10-01T05:39:27;89.40;;;79.77;;
24857;SDS011;12935;50.782;6.074;2022-10-01T05:41:53;91.90;;;81.87;;
24857;SDS011;12935;50.782;6.074;2022-10-01T05:44:20;119.97;;;87.57;;
24857;SDS011;12935;50.782;6.074;2022-10-01T05:46:45;97.32;;;81.60;;
24857;SDS011;12935;50.782;6.074;2022-10-01T05:49:11;91.93;;;79.80;;
24857;SDS011;12935;50.782;6.074;2022-10-01T05:51:36;96.10;;;80.20;;
24857;SDS011;12935;50.782;6.074;2022-10-01T05:54:01;87.87;;;78.50;;
24857;SDS011;12935;50.782;6.074;2022-10-01T05:56:28;90.60;;;79.30;;
24857;SDS011;12935;50.782;6.074;2022-10-01T05:58:53;102.40;;;82.70;;
24857;SDS011;12935;50.782;6.074;2022-10-01T06:01:19;96.57;;;79.23;;
24857;SDS011;12935;50.782;6.074;2022-10-01T06:03:44;96.13;;;77.70;;
24857;SDS011;12935;50.782;6.074;2022-10-01T06:06:10;102.97;;;81.90;;
24857;SDS011;12935;50.782;6.074;2022-10-01T06:08:35;76.70;;;68.70;;
24857;SDS011;12935;50.782;6.074;2022-10-01T06:11:02;74.00;;;66.18;;
24857;SDS011;12935;50.782;6.074;2022-10-01T06:13:28;70.53;;;63.25;;
24857;SDS011;12935;50.782;6.074;2022-10-01T06:15:54;68.93;;;61.93;;
24857;SDS011;12935;50.782;6.074;2022-10-01T06:18:19;74.73;;;66.53;;
24857;SDS011;12935;50.782;6.074;2022-10-01T06:20:44;67.73;;;60.97;;
24857;SDS011;12935;50.782;6.074;2022-10-01T06:23:10;70.97;;;63.77;;
24857;SDS011;12935;50.782;6.074;2022-10-01T06:25:37;76.23;;;68.50;;
24857;SDS011;12935;50.782;6.074;2022-10-01T06:28:04;73.77;;;66.13;;
24857;SDS011;12935;50.782;6.074;2022-10-01T06:30:32;78.07;;;69.33;;
24857;SDS011;12935;50.782;6.074;2022-10-01T06:33:17;82.17;;;71.50;;
24857;SDS011;12935;50.782;6.074;2022-10-01T06:35:44;86.93;;;71.27;;
24857;SDS011;12935;50.782;6.074;2022-10-01T06:38:11;80.20;;;71.60;;
24857;SDS011;12935;50.782;6.074;2022-10-01T06:40:37;79.43;;;70.83;;
24857;SDS011;12935;50.782;6.074;2022-10-01T06:43:03;79.15;;;70.82;;
24857;SDS011;12935;50.782;6.074;2022-10-01T06:45:33;89.70;;;74.17;;
24857;SDS011;12935;50.782;6.074;2022-10-01T06:48:02;80.33;;;71.53;;
24857;SDS011;12935;50.782;6.074;2022-10-01T06:50:28;101.97;;;76.50;;
24857;SDS011;12935;50.782;6.074;2022-10-01T06:52:55;125.22;;;87.70;;
24857;SDS011;12935;50.782;6.074;2022-10-01T06:55:22;86.30;;;73.43;;
24857;SDS011;12935;50.782;6.074;2022-10-01T06:57:53;93.13;;;76.72;;
24857;SDS011;12935;50.782;6.074;2022-10-01T07:00:23;92.18;;;75.90;;
24857;SDS011;12935;50.782;6.074;2022-10-01T07:02:49;81.05;;;72.28;;
24857;SDS011;12935;50.782;6.074;2022-10-01T07:05:14;87.77;;;75.17;;
24857;SDS011;12935;50.782;6.074;2022-10-01T07:07:41;83.22;;;73.22;;
24857;SDS011;12935;50.782;6.074;2022-10-01T07:10:07;103.40;;;78.93;;
24857;SDS011;12935;50.782;6.074;2022-10-01T07:12:34;87.03;;;74.68;;
24857;SDS011;12935;50.782;6.074;2022-10-01T07:15:00;91.15;;;74.35;;
24857;SDS011;12935;50.782;6.074;2022-10-01T07:17:26;89.43;;;74.33;;
24857;SDS011;12935;50.782;6.074;2022-10-01T07:19:52;87.90;;;74.73;;
24857;SDS011;12935;50.782;6.074;2022-10-01T07:22:17;101.07;;;77.37;;
24857;SDS011;12935;50.782;6.074;2022-10-01T07:24:43;79.57;;;71.27;;
24857;SDS011;12935;50.782;6.074;2022-10-01T07:27:10;93.30;;;74.87;;
24857;SDS011;12935;50.782;6.074;2022-10-01T07:29:36;91.37;;;76.60;;
24857;SDS011;12935;50.782;6.074;2022-10-01T07:32:01;117.03;;;84.33;;
24857;SDS011;12935;50.782;6.074;2022-10-01T07:34:32;121.43;;;82.72;;
24857;SDS011;12935;50.782;6.074;2022-10-01T07:36:59;82.15;;;73.28;;
24857;SDS011;12935;50.782;6.074;2022-10-01T07:39:24;86.97;;;75.10;;
24857;SDS011;12935;50.782;6.074;2022-10-01T07:41:50;93.07;;;76.87;;
24857;SDS011;12935;50.782;6.074;2022-10-01T07:44:16;97.90;;;77.23;;
24857;SDS011;12935;50.782;6.074;2022-10-01T07:46:42;91.25;;;74.25;;
24857;SDS011;12935;50.782;6.074;2022-10-01T07:49:07;96.63;;;78.50;;
24857;SDS011;12935;50.782;6.074;2022-10-01T07:51:33;93.47;;;80.55;;
24857;SDS011;12935;50.782;6.074;2022-10-01T07:54:00;95.03;;;78.07;;
24857;SDS011;12935;50.782;6.074;2022-10-01T07:56:28;96.65;;;79.00;;
24857;SDS011;12935;50.782;6.074;2022-10-01T07:58:56;105.00;;;84.70;;
24857;SDS011;12935;50.782;6.074;2022-10-01T08:01:23;100.95;;;82.32;;
24857;SDS011;12935;50.782;6.074;2022-10-01T08:03:49;107.53;;;86.50;;
24857;SDS011;12935;50.782;6.074;2022-10-01T08:06:15;96.23;;;82.00;;
24857;SDS011;12935;50.782;6.074;2022-10-01T08:08:42;103.57;;;84.05;;
24857;SDS011;12935;50.782;6.074;2022-10-01T08:11:08;99.20;;;82.10;;
24857;SDS011;12935;50.782;6.074;2022-10-01T08:13:34;97.40;;;83.20;;
24857;SDS011;12935;50.782;6.074;2022-10-01T08:16:02;109.85;;;89.25;;
24857;SDS011;12935;50.782;6.074;2022-10-01T08:18:30;78.47;;;69.13;;
24857;SDS011;12935;50.782;6.074;2022-10-01T08:20:55;73.57;;;66.57;;
24857;SDS011;12935;50.782;6.074;2022-10-01T08:23:20;78.40;;;69.77;;
24857;SDS011;12935;50.782;6.074;2022-10-01T08:25:46;105.73;;;78.40;;
24857;SDS011;12935;50.782;6.074;2022-10-01T08:28:12;95.67;;;75.17;;
24857;SDS011;12935;50.782;6.074;2022-10-01T08:30:38;88.20;;;75.17;;
24857;SDS011;12935;50.782;6.074;2022-10-01T08:33:05;93.30;;;75.77;;
24857;SDS011;12935;50.782;6.074;2022-10-01T08:35:31;84.75;;;72.90;;
24857;SDS011;12935;50.782;6.074;2022-10-01T08:38:04;98.17;;;78.90;;
24857;SDS011;12935;50.782;6.074;2022-10-01T08:40:34;102.37;;;80.53;;
24857;SDS011;12935;50.782;6.074;2022-10-01T08:43:05;86.07;;;76.40;;
24857;SDS011;12935;50.782;6.074;2022-10-01T08:45:39;93.93;;;76.87;;
24857;SDS011;12935;50.782;6.074;2022-10-01T08:48:12;89.70;;;77.47;;
24857;SDS011;12935;50.782;6.074;2022-10-01T08:50:48;107.23;;;84.03;;
24857;SDS011;12935;50.782;6.074;2022-10-01T08:53:24;131.90;;;89.13;;
24857;SDS011;12935;50.782;6.074;2022-10-01T08:55:56;112.60;;;86.23;;
24857;SDS011;12935;50.782;6.074;2022-10-01T08:58:25;108.50;;;86.27;;
24857;SDS011;12935;50.782;6.074;2022-10-01T09:00:56;109.33;;;85.20;;
24857;SDS011;12935;50.782;6.074;2022-10-01T09:03:21;101.60;;;80.97;;
24857;SDS011;12935;50.782;6.074;2022-10-01T09:11:13;87.93;;;73.20;;
24857;SDS011;12935;50.782;6.074;2022-10-01T09:14:19;102.30;;;77.67;;
24857;SDS011;12935;50.782;6.074;2022-10-01T09:19:32;88.40;;;73.90;;
24857;SDS011;12935;50.782;6.074;2022-10-01T09:22:10;95.23;;;77.30;;
24857;SDS011;12935;50.782;6.074;2022-10-01T09:24:42;96.13;;;79.40;;
24857;SDS011;12935;50.782;6.074;2022-10-01T09:27:13;111.67;;;83.20;;
24857;SDS011;12935;50.782;6.074;2022-10-01T09:29:45;91.83;;;79.33;;
24857;SDS011;12935;50.782;6.074;2022-10-01T09:32:14;103.53;;;83.77;;
24857;SDS011;12935;50.782;6.074;2022-10-01T09:34:43;108.00;;;87.17;;
24857;SDS011;12935;50.782;6.074;2022-10-01T09:42:39;113.40;;;89.43;;
24857;SDS011;12935;50.782;6.074;2022-10-01T09:45:05;113.77;;;90.00;;
24857;SDS011;12935;50.782;6.074;2022-10-01T09:47:31;113.10;;;90.33;;
24857;SDS011;12935;50.782;6.074;2022-10-01T09:49:57;148.93;;;101.10;;
24857;SDS011;12935;50.782;6.074;2022-10-01T09:52:31;115.07;;;93.80;;
24857;SDS011;12935;50.782;6.074;2022-10-01T09:55:02;117.60;;;91.33;;
24857;SDS011;12935;50.782;6.074;2022-10-01T09:57:46;123.27;;;93.13;;
24857;SDS011;12935;50.782;6.074;2022-10-01T10:00:21;158.17;;;93.43;;
24857;SDS011;12935;50.782;6.074;2022-10-01T10:02:49;103.57;;;89.47;;
24857;SDS011;12935;50.782;6.074;2022-10-01T10:05:17;110.23;;;91.53;;
24857;SDS011;12935;50.782;6.074;2022-10-01T10:07:44;120.03;;;93.63;;
24857;SDS011;12935;50.782;6.074;2022-10-01T10:10:16;128.93;;;96.93;;
24857;SDS011;12935;50.782;6.074;2022-10-01T10:12:44;125.10;;;96.00;;
24857;SDS011;12935;50.782;6.074;2022-10-01T10:15:15;129.00;;;97.67;;
24857;SDS011;12935;50.782;6.074;2022-10-01T10:17:45;110.10;;;94.00;;
24857;SDS011;12935;50.782;6.074;2022-10-01T10:20:37;120.27;;;99.43;;
24857;SDS011;12935;50.782;6.074;2022-10-01T10:23:05;130.83;;;100.20;;
24857;SDS011;12935;50.782;6.074;2022-10-01T10:25:40;119.67;;;97.90;;
24857;SDS011;12935;50.782;6.074;2022-10-01T10:28:16;120.17;;;95.23;;
24857;SDS011;12935;50.782;6.074;2022-10-01T10:30:44;118.03;;;96.70;;
24857;SDS011;12935;50.782;6.074;2022-10-01T10:33:10;134.53;;;98.60;;
24857;SDS011;12935;50.782;6.074;2022-10-01T10:35:38;139.60;;;97.40;;
24857;SDS011;12935;50.782;6.074;2022-10-01T10:38:03;110.27;;;87.83;;
24857;SDS011;12935;50.782;6.074;2022-10-01T10:40:31;106.10;;;80.57;;
24857;SDS011;12935;50.782;6.074;2022-10-01T10:43:11;121.10;;;88.60;;
24857;SDS011;12935;50.782;6.074;2022-10-01T10:45:44;107.27;;;82.97;;
24857;SDS011;12935;50.782;6.074;2022-10-01T10:48:14;105.43;;;84.70;;
24857;SDS011;12935;50.782;6.074;2022-10-01T10:50:43;125.93;;;90.07;;
24857;SDS011;12935;50.782;6.074;2022-10-01T10:53:22;133.77;;;91.33;;
24857;SDS011;12935;50.782;6.074;2022-10-01T10:55:55;123.70;;;92.67;;
24857;SDS011;12935;50.782;6.074;2022-10-01T10:58:29;109.70;;;87.70;;
24857;SDS011;12935;50.782;6.074;2022-10-01T11:00:57;105.70;;;87.30;;
24857;SDS011;12935;50.782;6.074;2022-10-01T11:03:30;111.83;;;84.97;;
24857;SDS011;12935;50.782;6.074;2022-10-01T11:06:00;104.70;;;81.30;;
24857;SDS011;12935;50.782;6.074;2022-10-01T11:08:32;110.67;;;85.30;;
24857;SDS011;12935;50.782;6.074;2022-10-01T11:11:08;103.63;;;81.57;;
24857;SDS011;12935;50.782;6.074;2022-10-01T11:16:30;113.63;;;86.20;;
24857;SDS011;12935;50.782;6.074;2022-10-01T11:19:21;109.10;;;82.03;;
24857;SDS011;12935;50.782;6.074;2022-10-01T11:21:57;131.07;;;89.50;;
24857;SDS011;12935;50.782;6.074;2022-10-01T11:30:54;110.00;;;83.90;;
24857;SDS011;12935;50.782;6.074;2022-10-01T11:41:16;113.93;;;87.00;;
24857;SDS011;12935;50.782;6.074;2022-10-01T11:44:13;98.90;;;79.20;;
24857;SDS011;12935;50.782;6.074;2022-10-01T11:46:54;110.23;;;79.20;;
24857;SDS011;12935;50.782;6.074;2022-10-01T11:54:59;88.53;;;73.53;;
24857;SDS011;12935;50.782;6.074;2022-10-01T11:57:51;99.73;;;76.30;;
24857;SDS011;12935;50.782;6.074;2022-10-01T12:00:40;81.43;;;69.90;;
24857;SDS011;12935;50.782;6.074;2022-10-01T12:03:17;85.77;;;72.83;;
24857;SDS011;12935;50.782;6.074;2022-10-01T12:05:49;101.23;;;81.20;;
24857;SDS011;12935;50.782;6.074;2022-10-01T12:08:23;90.20;;;74.00;;
24857;SDS011;12935;50.782;6.074;2022-10-01T12:10:53;113.67;;;83.50;;
24857;SDS011;12935;50.782;6.074;2022-10-01T12:13:40;105.93;;;77.97;;
24857;SDS011;12935;50.782;6.074;2022-10-01T12:16:12;84.30;;;71.90;;
24857;SDS011;12935;50.782;6.074;2022-10-01T12:21:28;89.17;;;75.60;;
24857;SDS011;12935;50.782;6.074;2022-10-01T12:24:32;113.83;;;82.20;;
24857;SDS011;12935;50.782;6.074;2022-10-01T12:32:31;105.90;;;79.80;;
24857;SDS011;12935;50.782;6.074;2022-10-01T13:00:25;98.57;;;77.43;;
24857;SDS011;12935;50.782;6.074;2022-10-01T13:13:32;92.80;;;73.60;;
24857;SDS011;12935;50.782;6.074;2022-10-01T13:16:03;108.30;;;77.33;;
24857;SDS011;12935;50.782;6.074;2022-10-01T13:19:04;100.97;;;76.53;;
24857;SDS011;12935;50.782;6.074;2022-10-01T13:21:56;113.23;;;81.37;;
24857;SDS011;12935;50.782;6.074;2022-10-01T13:24:52;92.63;;;73.63;;
24857;SDS011;12935;50.782;6.074;2022-10-01T13:30:11;100.27;;;73.40;;
24857;SDS011;12935;50.782;6.074;2022-10-01T13:32:55;94.13;;;73.70;;
24857;SDS011;12935;50.782;6.074;2022-10-01T13:37:53;81.63;;;72.37;;
24857;SDS011;12935;50.782;6.074;2022-10-01T13:40:29;99.70;;;76.53;;
24857;SDS011;12935;50.782;6.074;2022-10-01T13:42:58;83.50;;;74.90;;
24857;SDS011;12935;50.782;6.074;2022-10-01T13:45:27;97.97;;;79.00;;
24857;SDS011;12935;50.782;6.074;2022-10-01T13:48:15;78.30;;;69.00;;
24857;SDS011;12935;50.782;6.074;2022-10-01T13:51:00;88.00;;;75.97;;
24857;SDS011;12935;50.782;6.074;2022-10-01T13:53:34;90.63;;;82.80;;
24857;SDS011;12935;50.782;6.074;2022-10-01T13:56:02;179.70;;;167.97;;
24857;SDS011;12935;50.782;6.074;2022-10-01T14:00:54;380.50;;;364.20;;
24857;SDS011;12935;50.782;6.074;2022-10-01T14:06:25;529.53;;;507.87;;
24857;SDS011;12935;50.782;6.074;2022-10-01T14:11:52;564.43;;;540.90;;
24857;SDS011;12935;50.782;6.074;2022-10-01T14:14:55;822.27;;;785.03;;
24857;SDS011;12935;50.782;6.074;2022-10-01T14:17:44;529.80;;;508.70;;
24857;SDS011;12935;50.782;6.074;2022-10-01T14:20:18;630.00;;;605.20;;
24857;SDS011;12935;50.782;6.074;2022-10-01T14:33:37;419.57;;;401.43;;
24857;SDS011;12935;50.782;6.074;2022-10-01T14:36:14;147.20;;;134.33;;
24857;SDS011;12935;50.782;6.074;2022-10-01T14:38:41;203.50;;;192.60;;
24857;SDS011;12935;50.782;6.074;2022-10-01T14:41:14;210.60;;;199.07;;
24857;SDS011;12935;50.782;6.074;2022-10-01T14:43:42;898.17;;;859.27;;
24857;SDS011;12935;50.782;6.074;2022-10-01T14:46:14;618.20;;;592.83;;
24857;SDS011;12935;50.782;6.074;2022-10-01T14:48:42;365.43;;;349.67;;
24857;SDS011;12935;50.782;6.074;2022-10-01T14:54:12;106.83;;;98.43;;
24857;SDS011;12935;50.782;6.074;2022-10-01T14:56:39;88.83;;;77.60;;
24857;SDS011;12935;50.782;6.074;2022-10-01T14:59:06;112.33;;;82.37;;
24857;SDS011;12935;50.782;6.074;2022-10-01T15:01:38;84.67;;;75.70;;
24857;SDS011;12935;50.782;6.074;2022-10-01T15:04:12;118.63;;;83.60;;
24857;SDS011;12935;50.782;6.074;2022-10-01T15:06:41;88.40;;;72.03;;
24857;SDS011;12935;50.782;6.074;2022-10-01T15:09:10;95.80;;;75.57;;
24857;SDS011;12935;50.782;6.074;2022-10-01T15:11:39;90.67;;;74.57;;
24857;SDS011;12935;50.782;6.074;2022-10-01T15:14:06;91.60;;;75.47;;
24857;SDS011;12935;50.782;6.074;2022-10-01T15:16:37;98.87;;;72.90;;
24857;SDS011;12935;50.782;6.074;2022-10-01T15:19:06;111.40;;;77.33;;
24857;SDS011;12935;50.782;6.074;2022-10-01T15:21:40;140.67;;;87.73;;
24857;SDS011;12935;50.782;6.074;2022-10-01T15:24:29;116.50;;;83.03;;
24857;SDS011;12935;50.782;6.074;2022-10-01T15:27:09;116.30;;;83.87;;
24857;SDS011;12935;50.782;6.074;2022-10-01T15:29:37;110.40;;;85.03;;
24857;SDS011;12935;50.782;6.074;2022-10-01T15:32:04;126.90;;;85.60;;
24857;SDS011;12935;50.782;6.074;2022-10-01T15:34:31;101.17;;;79.27;;
24857;SDS011;12935;50.782;6.074;2022-10-01T15:36:57;121.27;;;86.87;;
24857;SDS011;12935;50.782;6.074;2022-10-01T15:42:19;127.37;;;79.43;;
24857;SDS011;12935;50.782;6.074;2022-10-01T15:45:09;131.53;;;86.00;;
24857;SDS011;12935;50.782;6.074;2022-10-01T15:47:47;108.23;;;78.97;;
24857;SDS011;12935;50.782;6.074;2022-10-01T15:50:19;129.07;;;86.27;;
24857;SDS011;12935;50.782;6.074;2022-10-01T15:52:48;109.03;;;77.67;;
24857;SDS011;12935;50.782;6.074;2022-10-01T16:00:43;125.83;;;86.47;;
24857;SDS011;12935;50.782;6.074;2022-10-01T16:03:25;100.27;;;79.27;;
24857;SDS011;12935;50.782;6.074;2022-10-01T16:05:57;109.07;;;80.20;;
24857;SDS011;12935;50.782;6.074;2022-10-01T16:08:26;99.80;;;80.63;;
24857;SDS011;12935;50.782;6.074;2022-10-01T16:14:41;102.73;;;81.03;;
24857;SDS011;12935;50.782;6.074;2022-10-01T16:19:42;123.73;;;90.67;;
24857;SDS011;12935;50.782;6.074;2022-10-01T16:24:46;138.47;;;95.07;;
24857;SDS011;12935;50.782;6.074;2022-10-01T16:27:21;120.43;;;88.63;;
24857;SDS011;12935;50.782;6.074;2022-10-01T16:29:51;121.87;;;89.40;;
24857;SDS011;12935;50.782;6.074;2022-10-01T16:32:18;112.13;;;87.43;;
24857;SDS011;12935;50.782;6.074;2022-10-01T16:34:43;123.30;;;91.30;;
24857;SDS011;12935;50.782;6.074;2022-10-01T16:37:09;118.87;;;92.60;;
24857;SDS011;12935;50.782;6.074;2022-10-01T16:39:34;113.80;;;91.00;;
24857;SDS011;12935;50.782;6.074;2022-10-01T16:42:00;131.87;;;96.70;;
24857;SDS011;12935;50.782;6.074;2022-10-01T16:44:26;114.20;;;89.27;;
24857;SDS011;12935;50.782;6.074;2022-10-01T16:46:52;123.97;;;91.77;;
24857;SDS011;12935;50.782;6.074;2022-10-01T16:49:20;110.90;;;89.57;;
24857;SDS011;12935;50.782;6.074;2022-10-01T16:51:50;122.63;;;93.10;;
24857;SDS011;12935;50.782;6.074;2022-10-01T16:54:23;125.30;;;92.23;;
24857;SDS011;12935;50.782;6.074;2022-10-01T16:56:51;121.50;;;89.50;;